sensor_id;sensor_type;location;lat;lon;timestamp;temperature;humidity
45643;DHT22;31358;46.008;11.144;2023-07-20T00:01:58;19.60;99.90
45643;DHT22;31358;46.008;11.144;2023-07-20T00:04:23;19.60;99.90
45643;DHT22;31358;46.008;11.144;2023-07-20T00:06:49;19.70;99.90
45643;DHT22;31358;46.008;11.144;2023-07-20T00:09:15;19.50;99.90
45643;DHT22;31358;46.008;11.144;2023-07-20T00:11:48;19.50;99.90
45643;DHT22;31358;46.008;11.144;2023-07-20T00:14:15;19.50;99.90
45643;DHT22;31358;46.008;11.144;2023-07-20T00:16:40;19.70;99.90
45643;DHT22;31358;46.008;11.144;2023-07-20T00:19:06;19.70;99.90
45643;DHT22;31358;46.008;11.144;2023-07-20T00:21:32;19.70;99.90
45643;DHT22;31358;46.008;11.144;2023-07-20T00:23:58;19.70;99.90
45643;DHT22;31358;46.008;11.144;2023-07-20T00:26:23;19.80;99.90
45643;DHT22;31358;46.008;11.144;2023-07-20T00:28:50;19.90;99.90
45643;DHT22;31358;46.008;11.144;2023-07-20T00:31:17;19.90;99.90
45643;DHT22;31358;46.008;11.144;2023-07-20T00:33:43;19.90;99.90
45643;DHT22;31358;46.008;11.144;2023-07-20T00:36:08;20.00;99.90
45643;DHT22;31358;46.008;11.144;2023-07-20T00:38:34;19.90;99.90
45643;DHT22;31358;46.008;11.144;2023-07-20T00:41:00;19.90;99.90
45643;DHT22;31358;46.008;11.144;2023-07-20T00:43:25;19.90;99.90
45643;DHT22;31358;46.008;11.144;2023-07-20T00:45:51;19.90;99.90
45643;DHT22;31358;46.008;11.144;2023-07-20T00:48:17;19.80;99.90
45643;DHT22;31358;46.008;11.144;2023-07-20T00:50:43;19.90;99.90
45643;DHT22;31358;46.008;11.144;2023-07-20T00:53:09;19.90;99.90
45643;DHT22;31358;46.008;11.144;2023-07-20T00:55:35;19.90;99.90
45643;DHT22;31358;46.008;11.144;2023-07-20T00:58:01;19.90;99.90
45643;DHT22;31358;46.008;11.144;2023-07-20T01:00:27;19.90;99.90
45643;DHT22;31358;46.008;11.144;2023-07-20T01:02:53;19.90;99.90
45643;DHT22;31358;46.008;11.144;2023-07-20T01:05:19;19.80;99.90
45643;DHT22;31358;46.008;11.144;2023-07-20T01:07:53;19.90;99.90
45643;DHT22;31358;46.008;11.144;2023-07-20T01:12:59;19.80;99.90
45643;DHT22;31358;46.008;11.144;2023-07-20T01:15:25;19.80;99.90
45643;DHT22;31358;46.008;11.144;2023-07-20T01:17:51;19.70;99.90
45643;DHT22;31358;46.008;11.144;2023-07-20T01:20:19;19.80;99.90
45643;DHT22;31358;46.008;11.144;2023-07-20T01:33:36;19.90;99.90
45643;DHT22;31358;46.008;11.144;2023-07-20T01:36:02;19.80;99.90
45643;DHT22;31358;46.008;11.144;2023-07-20T01:38:29;19.90;99.90
45643;DHT22;31358;46.008;11.144;2023-07-20T01:40:55;20.00;99.90
45643;DHT22;31358;46.008;11.144;2023-07-20T01:43:21;19.90;99.90
45643;DHT22;31358;46.008;11.144;2023-07-20T01:45:47;19.90;99.90
45643;DHT22;31358;46.008;11.144;2023-07-20T01:48:13;19.80;99.90
45643;DHT22;31358;46.008;11.144;2023-07-20T01:50:38;19.90;99.90
45643;DHT22;31358;46.008;11.144;2023-07-20T01:53:04;19.80;99.90
45643;DHT22;31358;46.008;11.144;2023-07-20T01:55:30;19.70;99.90
45643;DHT22;31358;46.008;11.144;2023-07-20T01:57:55;19.70;99.90
45643;DHT22;31358;46.008;11.144;2023-07-20T02:00:22;19.70;99.90
45643;DHT22;31358;46.008;11.144;2023-07-20T02:02:50;19.50;99.90
45643;DHT22;31358;46.008;11.144;2023-07-20T02:05:16;19.30;99.90
45643;DHT22;31358;46.008;11.144;2023-07-20T02:07:42;19.30;99.90
45643;DHT22;31358;46.008;11.144;2023-07-20T02:10:08;19.40;99.90
45643;DHT22;31358;46.008;11.144;2023-07-20T02:12:34;19.50;99.90
45643;DHT22;31358;46.008;11.144;2023-07-20T02:15:01;19.70;99.90
45643;DHT22;31358;46.008;11.144;2023-07-20T02:17:27;19.80;99.90
45643;DHT22;31358;46.008;11.144;2023-07-20T02:19:53;19.80;99.90
45643;DHT22;31358;46.008;11.144;2023-07-20T02:22:20;19.70;99.90
45643;DHT22;31358;46.008;11.144;2023-07-20T02:24:47;19.70;99.90
45643;DHT22;31358;46.008;11.144;2023-07-20T02:27:12;19.70;99.90
45643;DHT22;31358;46.008;11.144;2023-07-20T02:29:40;19.70;99.90
45643;DHT22;31358;46.008;11.144;2023-07-20T02:32:06;19.70;99.90
45643;DHT22;31358;46.008;11.144;2023-07-20T02:34:32;19.60;99.90
45643;DHT22;31358;46.008;11.144;2023-07-20T02:36:57;19.60;99.90
45643;DHT22;31358;46.008;11.144;2023-07-20T02:39:27;19.70;99.90
45643;DHT22;31358;46.008;11.144;2023-07-20T02:41:53;19.60;99.90
45643;DHT22;31358;46.008;11.144;2023-07-20T02:44:19;19.60;99.90
45643;DHT22;31358;46.008;11.144;2023-07-20T02:46:45;19.60;99.90
45643;DHT22;31358;46.008;11.144;2023-07-20T02:49:10;19.50;99.90
45643;DHT22;31358;46.008;11.144;2023-07-20T02:51:36;19.50;99.90
45643;DHT22;31358;46.008;11.144;2023-07-20T02:54:02;19.60;99.90
45643;DHT22;31358;46.008;11.144;2023-07-20T02:56:29;19.70;99.90
45643;DHT22;31358;46.008;11.144;2023-07-20T02:58:54;19.70;99.90
45643;DHT22;31358;46.008;11.144;2023-07-20T03:01:20;19.70;99.90
45643;DHT22;31358;46.008;11.144;2023-07-20T03:03:46;19.70;99.90
45643;DHT22;31358;46.008;11.144;2023-07-20T03:06:15;19.60;99.90
45643;DHT22;31358;46.008;11.144;2023-07-20T03:08:44;19.50;99.90
45643;DHT22;31358;46.008;11.144;2023-07-20T03:11:13;19.50;99.90
45643;DHT22;31358;46.008;11.144;2023-07-20T03:13:41;19.50;99.90
45643;DHT22;31358;46.008;11.144;2023-07-20T03:16:08;19.50;99.90
45643;DHT22;31358;46.008;11.144;2023-07-20T03:18:39;19.40;99.90
45643;DHT22;31358;46.008;11.144;2023-07-20T03:21:07;19.20;99.90
45643;DHT22;31358;46.008;11.144;2023-07-20T03:23:33;19.40;99.90
45643;DHT22;31358;46.008;11.144;2023-07-20T03:25:58;19.30;99.90
45643;DHT22;31358;46.008;11.144;2023-07-20T03:28:24;19.20;99.90
45643;DHT22;31358;46.008;11.144;2023-07-20T03:30:57;19.00;99.90
45643;DHT22;31358;46.008;11.144;2023-07-20T03:33:26;19.10;99.90
45643;DHT22;31358;46.008;11.144;2023-07-20T03:35:53;19.10;99.90
45643;DHT22;31358;46.008;11.144;2023-07-20T03:38:19;19.10;99.90
45643;DHT22;31358;46.008;11.144;2023-07-20T03:40:55;19.00;99.90
45643;DHT22;31358;46.008;11.144;2023-07-20T03:43:21;18.90;99.90
45643;DHT22;31358;46.008;11.144;2023-07-20T03:45:47;18.90;99.90
45643;DHT22;31358;46.008;11.144;2023-07-20T03:48:17;18.70;99.90
45643;DHT22;31358;46.008;11.144;2023-07-20T03:50:47;18.70;99.90
45643;DHT22;31358;46.008;11.144;2023-07-20T03:53:13;18.80;99.90
45643;DHT22;31358;46.008;11.144;2023-07-20T03:55:40;18.90;99.90
45643;DHT22;31358;46.008;11.144;2023-07-20T03:58:07;18.80;99.90
45643;DHT22;31358;46.008;11.144;2023-07-20T04:00:33;18.80;99.90
45643;DHT22;31358;46.008;11.144;2023-07-20T04:02:59;18.80;99.90
45643;DHT22;31358;46.008;11.144;2023-07-20T04:05:25;18.90;99.90
45643;DHT22;31358;46.008;11.144;2023-07-20T04:07:51;18.80;99.90
45643;DHT22;31358;46.008;11.144;2023-07-20T04:10:18;18.90;99.90
45643;DHT22;31358;46.008;11.144;2023-07-20T04:12:44;18.80;99.90
45643;DHT22;31358;46.008;11.144;2023-07-20T04:15:10;18.90;99.90
45643;DHT22;31358;46.008;11.144;2023-07-20T04:17:36;18.90;99.90
45643;DHT22;31358;46.008;11.144;2023-07-20T04:20:02;18.80;99.90
45643;DHT22;31358;46.008;11.144;2023-07-20T04:22:28;18.90;99.90
45643;DHT22;31358;46.008;11.144;2023-07-20T04:24:54;19.00;99.90
45643;DHT22;31358;46.008;11.144;2023-07-20T04:27:20;18.90;99.90
45643;DHT22;31358;46.008;11.144;2023-07-20T04:29:45;18.80;99.90
45643;DHT22;31358;46.008;11.144;2023-07-20T04:32:11;18.90;99.90
45643;DHT22;31358;46.008;11.144;2023-07-20T04:34:37;18.90;99.90
45643;DHT22;31358;46.008;11.144;2023-07-20T04:37:04;18.80;99.90
45643;DHT22;31358;46.008;11.144;2023-07-20T04:39:29;18.80;99.90
45643;DHT22;31358;46.008;11.144;2023-07-20T04:41:56;18.90;99.90
45643;DHT22;31358;46.008;11.144;2023-07-20T04:44:22;19.00;99.90
45643;DHT22;31358;46.008;11.144;2023-07-20T04:46:47;19.30;99.90
45643;DHT22;31358;46.008;11.144;2023-07-20T04:49:13;19.10;99.90
45643;DHT22;31358;46.008;11.144;2023-07-20T04:51:39;19.10;99.90
45643;DHT22;31358;46.008;11.144;2023-07-20T04:54:05;19.00;99.90
45643;DHT22;31358;46.008;11.144;2023-07-20T04:56:30;19.10;99.90
45643;DHT22;31358;46.008;11.144;2023-07-20T04:58:56;19.20;99.90
45643;DHT22;31358;46.008;11.144;2023-07-20T05:01:23;19.10;99.90
45643;DHT22;31358;46.008;11.144;2023-07-20T05:03:48;19.00;99.90
45643;DHT22;31358;46.008;11.144;2023-07-20T05:06:15;18.90;99.90
45643;DHT22;31358;46.008;11.144;2023-07-20T05:08:41;18.80;99.90
45643;DHT22;31358;46.008;11.144;2023-07-20T05:11:07;18.90;99.90
45643;DHT22;31358;46.008;11.144;2023-07-20T05:13:33;18.90;99.90
45643;DHT22;31358;46.008;11.144;2023-07-20T05:15:59;18.90;99.90
45643;DHT22;31358;46.008;11.144;2023-07-20T05:18:24;18.90;99.90
45643;DHT22;31358;46.008;11.144;2023-07-20T05:20:51;18.90;99.90
45643;DHT22;31358;46.008;11.144;2023-07-20T05:23:20;19.00;99.90
45643;DHT22;31358;46.008;11.144;2023-07-20T05:25:46;19.10;99.90
45643;DHT22;31358;46.008;11.144;2023-07-20T05:28:12;19.20;99.90
45643;DHT22;31358;46.008;11.144;2023-07-20T05:30:38;19.20;99.90
45643;DHT22;31358;46.008;11.144;2023-07-20T05:33:03;19.10;99.90
45643;DHT22;31358;46.008;11.144;2023-07-20T05:35:29;19.20;99.90
45643;DHT22;31358;46.008;11.144;2023-07-20T05:37:55;19.10;99.90
45643;DHT22;31358;46.008;11.144;2023-07-20T05:40:20;19.20;99.90
45643;DHT22;31358;46.008;11.144;2023-07-20T05:42:46;19.20;99.90
45643;DHT22;31358;46.008;11.144;2023-07-20T05:45:13;19.30;99.90
45643;DHT22;31358;46.008;11.144;2023-07-20T05:47:39;19.40;99.90
45643;DHT22;31358;46.008;11.144;2023-07-20T05:50:05;19.30;99.90
45643;DHT22;31358;46.008;11.144;2023-07-20T05:52:31;19.30;99.90
45643;DHT22;31358;46.008;11.144;2023-07-20T05:54:57;19.40;99.90
45643;DHT22;31358;46.008;11.144;2023-07-20T05:57:23;19.40;99.90
45643;DHT22;31358;46.008;11.144;2023-07-20T05:59:48;19.50;99.90
45643;DHT22;31358;46.008;11.144;2023-07-20T06:02:14;19.60;99.90
45643;DHT22;31358;46.008;11.144;2023-07-20T06:04:40;19.60;99.90
45643;DHT22;31358;46.008;11.144;2023-07-20T06:07:06;19.70;99.90
45643;DHT22;31358;46.008;11.144;2023-07-20T06:09:33;19.80;99.90
45643;DHT22;31358;46.008;11.144;2023-07-20T06:11:59;19.80;99.90
45643;DHT22;31358;46.008;11.144;2023-07-20T06:14:24;19.90;99.90
45643;DHT22;31358;46.008;11.144;2023-07-20T06:16:50;20.00;99.90
45643;DHT22;31358;46.008;11.144;2023-07-20T06:19:15;20.00;99.90
45643;DHT22;31358;46.008;11.144;2023-07-20T06:21:41;19.90;99.90
45643;DHT22;31358;46.008;11.144;2023-07-20T06:24:07;20.00;99.90
45643;DHT22;31358;46.008;11.144;2023-07-20T06:26:33;20.10;99.90
45643;DHT22;31358;46.008;11.144;2023-07-20T06:29:07;20.20;99.90
45643;DHT22;31358;46.008;11.144;2023-07-20T06:31:34;20.40;99.90
45643;DHT22;31358;46.008;11.144;2023-07-20T06:34:01;20.40;99.90
45643;DHT22;31358;46.008;11.144;2023-07-20T06:36:26;20.50;99.90
45643;DHT22;31358;46.008;11.144;2023-07-20T06:38:53;20.50;99.90
45643;DHT22;31358;46.008;11.144;2023-07-20T06:41:18;20.50;99.90
45643;DHT22;31358;46.008;11.144;2023-07-20T06:43:45;20.50;99.90
45643;DHT22;31358;46.008;11.144;2023-07-20T06:46:11;20.50;99.90
45643;DHT22;31358;46.008;11.144;2023-07-20T06:48:36;20.60;99.90
45643;DHT22;31358;46.008;11.144;2023-07-20T06:51:02;20.70;99.90
45643;DHT22;31358;46.008;11.144;2023-07-20T06:53:28;20.80;99.90
45643;DHT22;31358;46.008;11.144;2023-07-20T06:55:54;20.90;99.90
45643;DHT22;31358;46.008;11.144;2023-07-20T06:58:25;21.00;99.90
45643;DHT22;31358;46.008;11.144;2023-07-20T07:00:51;21.10;99.90
45643;DHT22;31358;46.008;11.144;2023-07-20T07:03:17;21.40;99.90
45643;DHT22;31358;46.008;11.144;2023-07-20T07:05:43;21.60;99.90
45643;DHT22;31358;46.008;11.144;2023-07-20T07:08:10;21.80;99.90
45643;DHT22;31358;46.008;11.144;2023-07-20T07:10:37;22.00;99.90
45643;DHT22;31358;46.008;11.144;2023-07-20T07:13:03;22.30;99.90
45643;DHT22;31358;46.008;11.144;2023-07-20T07:15:29;22.50;99.90
45643;DHT22;31358;46.008;11.144;2023-07-20T07:17:55;22.60;99.90
45643;DHT22;31358;46.008;11.144;2023-07-20T07:20:22;22.80;99.90
45643;DHT22;31358;46.008;11.144;2023-07-20T07:22:49;23.10;99.90
45643;DHT22;31358;46.008;11.144;2023-07-20T07:25:15;23.40;99.90
45643;DHT22;31358;46.008;11.144;2023-07-20T07:27:41;23.50;99.90
45643;DHT22;31358;46.008;11.144;2023-07-20T07:30:07;23.80;99.90
45643;DHT22;31358;46.008;11.144;2023-07-20T07:32:33;24.20;99.90
45643;DHT22;31358;46.008;11.144;2023-07-20T07:34:59;25.20;99.90
45643;DHT22;31358;46.008;11.144;2023-07-20T07:37:25;26.10;99.90
45643;DHT22;31358;46.008;11.144;2023-07-20T07:39:51;27.30;99.90
45643;DHT22;31358;46.008;11.144;2023-07-20T07:42:17;27.90;99.90
45643;DHT22;31358;46.008;11.144;2023-07-20T07:44:44;29.10;99.00
45643;DHT22;31358;46.008;11.144;2023-07-20T07:47:10;29.50;98.60
45643;DHT22;31358;46.008;11.144;2023-07-20T07:49:35;29.50;97.60
45643;DHT22;31358;46.008;11.144;2023-07-20T07:52:01;29.20;98.30
45643;DHT22;31358;46.008;11.144;2023-07-20T07:54:29;29.10;98.30
45643;DHT22;31358;46.008;11.144;2023-07-20T07:56:56;29.30;97.90
45643;DHT22;31358;46.008;11.144;2023-07-20T07:59:21;29.00;98.60
45643;DHT22;31358;46.008;11.144;2023-07-20T08:01:48;29.10;98.40
45643;DHT22;31358;46.008;11.144;2023-07-20T08:04:13;29.10;97.80
45643;DHT22;31358;46.008;11.144;2023-07-20T08:06:39;29.10;98.40
45643;DHT22;31358;46.008;11.144;2023-07-20T08:09:05;29.00;98.80
45643;DHT22;31358;46.008;11.144;2023-07-20T08:11:31;28.10;99.30
45643;DHT22;31358;46.008;11.144;2023-07-20T08:14:00;27.50;99.20
45643;DHT22;31358;46.008;11.144;2023-07-20T08:16:26;27.00;99.50
45643;DHT22;31358;46.008;11.144;2023-07-20T08:18:52;26.60;99.90
45643;DHT22;31358;46.008;11.144;2023-07-20T08:21:17;26.40;99.90
45643;DHT22;31358;46.008;11.144;2023-07-20T08:23:43;26.50;99.90
45643;DHT22;31358;46.008;11.144;2023-07-20T08:26:09;26.30;99.90
45643;DHT22;31358;46.008;11.144;2023-07-20T08:28:34;26.30;99.90
45643;DHT22;31358;46.008;11.144;2023-07-20T08:31:00;26.20;99.90
45643;DHT22;31358;46.008;11.144;2023-07-20T08:33:26;26.40;99.90
45643;DHT22;31358;46.008;11.144;2023-07-20T08:35:54;25.70;99.90
45643;DHT22;31358;46.008;11.144;2023-07-20T08:38:21;25.80;99.90
45643;DHT22;31358;46.008;11.144;2023-07-20T08:40:47;25.70;99.90
45643;DHT22;31358;46.008;11.144;2023-07-20T08:43:14;25.80;99.90
45643;DHT22;31358;46.008;11.144;2023-07-20T08:45:42;25.80;99.90
45643;DHT22;31358;46.008;11.144;2023-07-20T08:48:12;25.90;99.90
45643;DHT22;31358;46.008;11.144;2023-07-20T08:50:38;25.80;99.90
45643;DHT22;31358;46.008;11.144;2023-07-20T08:53:04;25.60;99.90
45643;DHT22;31358;46.008;11.144;2023-07-20T08:55:30;25.70;99.90
45643;DHT22;31358;46.008;11.144;2023-07-20T08:57:58;25.90;99.90
45643;DHT22;31358;46.008;11.144;2023-07-20T09:00:26;26.10;99.90
45643;DHT22;31358;46.008;11.144;2023-07-20T09:02:55;26.10;99.90
45643;DHT22;31358;46.008;11.144;2023-07-20T09:05:23;26.30;99.90
45643;DHT22;31358;46.008;11.144;2023-07-20T09:07:52;26.30;99.90
45643;DHT22;31358;46.008;11.144;2023-07-20T09:10:20;26.20;99.90
45643;DHT22;31358;46.008;11.144;2023-07-20T09:12:46;26.30;99.90
45643;DHT22;31358;46.008;11.144;2023-07-20T09:15:12;26.50;99.90
45643;DHT22;31358;46.008;11.144;2023-07-20T09:17:38;26.30;99.90
45643;DHT22;31358;46.008;11.144;2023-07-20T09:20:08;26.40;99.90
45643;DHT22;31358;46.008;11.144;2023-07-20T09:22:40;26.60;99.90
45643;DHT22;31358;46.008;11.144;2023-07-20T09:25:16;26.60;99.90
45643;DHT22;31358;46.008;11.144;2023-07-20T09:27:44;26.40;99.90
45643;DHT22;31358;46.008;11.144;2023-07-20T09:30:11;26.50;99.90
45643;DHT22;31358;46.008;11.144;2023-07-20T09:32:49;26.50;99.90
45643;DHT22;31358;46.008;11.144;2023-07-20T09:35:25;26.70;99.90
45643;DHT22;31358;46.008;11.144;2023-07-20T09:37:58;26.80;99.90
45643;DHT22;31358;46.008;11.144;2023-07-20T09:40:25;27.00;99.90
45643;DHT22;31358;46.008;11.144;2023-07-20T09:42:53;27.20;99.90
45643;DHT22;31358;46.008;11.144;2023-07-20T09:45:35;27.30;99.90
45643;DHT22;31358;46.008;11.144;2023-07-20T09:48:07;27.30;99.90
45643;DHT22;31358;46.008;11.144;2023-07-20T09:50:34;27.50;99.90
45643;DHT22;31358;46.008;11.144;2023-07-20T09:53:04;27.40;99.90
45643;DHT22;31358;46.008;11.144;2023-07-20T09:55:31;27.40;99.90
45643;DHT22;31358;46.008;11.144;2023-07-20T09:57:59;27.40;99.90
45643;DHT22;31358;46.008;11.144;2023-07-20T10:00:24;27.70;99.90
45643;DHT22;31358;46.008;11.144;2023-07-20T10:02:51;28.10;99.90
45643;DHT22;31358;46.008;11.144;2023-07-20T10:05:18;28.30;99.90
45643;DHT22;31358;46.008;11.144;2023-07-20T10:07:48;28.00;97.90
45643;DHT22;31358;46.008;11.144;2023-07-20T10:10:15;28.20;99.50
45643;DHT22;31358;46.008;11.144;2023-07-20T10:12:44;28.50;99.50
45643;DHT22;31358;46.008;11.144;2023-07-20T10:15:19;28.70;99.40
45643;DHT22;31358;46.008;11.144;2023-07-20T10:18:09;28.70;99.60
45643;DHT22;31358;46.008;11.144;2023-07-20T10:20:39;28.50;99.20
45643;DHT22;31358;46.008;11.144;2023-07-20T10:23:07;28.60;99.60
45643;DHT22;31358;46.008;11.144;2023-07-20T10:25:33;28.50;99.00
45643;DHT22;31358;46.008;11.144;2023-07-20T10:28:06;28.60;98.80
45643;DHT22;31358;46.008;11.144;2023-07-20T10:30:34;28.10;98.60
45643;DHT22;31358;46.008;11.144;2023-07-20T10:33:01;27.90;99.90
45643;DHT22;31358;46.008;11.144;2023-07-20T10:35:28;28.10;99.70
45643;DHT22;31358;46.008;11.144;2023-07-20T10:38:03;27.90;98.70
45643;DHT22;31358;46.008;11.144;2023-07-20T10:40:34;28.40;99.90
45643;DHT22;31358;46.008;11.144;2023-07-20T10:43:07;28.20;99.60
45643;DHT22;31358;46.008;11.144;2023-07-20T10:45:35;28.60;99.10
45643;DHT22;31358;46.008;11.144;2023-07-20T10:48:15;28.80;98.80
45643;DHT22;31358;46.008;11.144;2023-07-20T10:50:42;28.90;99.30
45643;DHT22;31358;46.008;11.144;2023-07-20T10:53:16;29.00;99.60
45643;DHT22;31358;46.008;11.144;2023-07-20T10:55:42;29.30;99.90
45643;DHT22;31358;46.008;11.144;2023-07-20T10:58:13;29.20;99.30
45643;DHT22;31358;46.008;11.144;2023-07-20T11:01:03;29.20;99.90
45643;DHT22;31358;46.008;11.144;2023-07-20T11:03:34;29.20;98.00
45643;DHT22;31358;46.008;11.144;2023-07-20T11:08:44;29.40;99.30
45643;DHT22;31358;46.008;11.144;2023-07-20T11:11:26;29.40;98.70
45643;DHT22;31358;46.008;11.144;2023-07-20T11:14:03;29.40;98.50
45643;DHT22;31358;46.008;11.144;2023-07-20T11:19:04;29.60;99.00
45643;DHT22;31358;46.008;11.144;2023-07-20T11:21:36;29.50;99.30
45643;DHT22;31358;46.008;11.144;2023-07-20T11:24:06;29.60;99.60
45643;DHT22;31358;46.008;11.144;2023-07-20T11:29:07;29.80;98.50
45643;DHT22;31358;46.008;11.144;2023-07-20T11:31:38;29.80;99.20
45643;DHT22;31358;46.008;11.144;2023-07-20T11:34:04;29.90;98.30
45643;DHT22;31358;46.008;11.144;2023-07-20T11:36:30;30.00;98.20
45643;DHT22;31358;46.008;11.144;2023-07-20T11:38:56;30.10;98.60
45643;DHT22;31358;46.008;11.144;2023-07-20T11:41:22;30.00;97.90
45643;DHT22;31358;46.008;11.144;2023-07-20T11:43:48;30.20;99.30
45643;DHT22;31358;46.008;11.144;2023-07-20T11:46:13;30.10;99.10
45643;DHT22;31358;46.008;11.144;2023-07-20T11:48:39;30.30;97.80
45643;DHT22;31358;46.008;11.144;2023-07-20T11:51:05;30.40;98.90
45643;DHT22;31358;46.008;11.144;2023-07-20T11:53:31;30.40;98.40
45643;DHT22;31358;46.008;11.144;2023-07-20T11:55:58;30.60;99.10
45643;DHT22;31358;46.008;11.144;2023-07-20T11:58:24;30.60;98.00
45643;DHT22;31358;46.008;11.144;2023-07-20T12:00:54;30.70;98.50
45643;DHT22;31358;46.008;11.144;2023-07-20T12:03:20;30.70;99.20
45643;DHT22;31358;46.008;11.144;2023-07-20T12:05:46;30.90;98.10
45643;DHT22;31358;46.008;11.144;2023-07-20T12:08:12;31.20;98.10
45643;DHT22;31358;46.008;11.144;2023-07-20T12:10:40;31.00;96.90
45643;DHT22;31358;46.008;11.144;2023-07-20T12:13:10;30.80;96.30
45643;DHT22;31358;46.008;11.144;2023-07-20T12:15:37;30.60;93.90
45643;DHT22;31358;46.008;11.144;2023-07-20T12:18:03;30.70;95.70
45643;DHT22;31358;46.008;11.144;2023-07-20T12:20:33;31.20;95.30
45643;DHT22;31358;46.008;11.144;2023-07-20T12:23:02;31.20;94.30
45643;DHT22;31358;46.008;11.144;2023-07-20T12:25:40;31.50;95.80
45643;DHT22;31358;46.008;11.144;2023-07-20T12:28:10;31.90;95.20
45643;DHT22;31358;46.008;11.144;2023-07-20T12:30:40;31.80;94.60
45643;DHT22;31358;46.008;11.144;2023-07-20T12:33:06;31.90;95.10
45643;DHT22;31358;46.008;11.144;2023-07-20T12:35:33;32.00;94.40
45643;DHT22;31358;46.008;11.144;2023-07-20T12:37:59;31.60;94.90
45643;DHT22;31358;46.008;11.144;2023-07-20T12:40:25;31.50;94.90
45643;DHT22;31358;46.008;11.144;2023-07-20T12:42:50;31.70;95.60
45643;DHT22;31358;46.008;11.144;2023-07-20T12:45:16;31.60;95.90
45643;DHT22;31358;46.008;11.144;2023-07-20T12:47:42;31.50;94.70
45643;DHT22;31358;46.008;11.144;2023-07-20T12:50:10;31.50;94.70
45643;DHT22;31358;46.008;11.144;2023-07-20T12:52:39;31.70;94.10
45643;DHT22;31358;46.008;11.144;2023-07-20T12:55:09;31.80;94.60
45643;DHT22;31358;46.008;11.144;2023-07-20T12:57:35;31.80;94.40
45643;DHT22;31358;46.008;11.144;2023-07-20T13:00:06;31.80;92.00
45643;DHT22;31358;46.008;11.144;2023-07-20T13:02:33;31.80;93.10
45643;DHT22;31358;46.008;11.144;2023-07-20T13:04:59;31.90;93.60
45643;DHT22;31358;46.008;11.144;2023-07-20T13:07:32;31.70;94.60
45643;DHT22;31358;46.008;11.144;2023-07-20T13:09:58;31.50;94.60
45643;DHT22;31358;46.008;11.144;2023-07-20T13:12:26;31.70;95.00
45643;DHT22;31358;46.008;11.144;2023-07-20T13:14:52;31.70;94.10
45643;DHT22;31358;46.008;11.144;2023-07-20T13:17:17;31.70;94.40
45643;DHT22;31358;46.008;11.144;2023-07-20T13:19:43;31.60;94.90
45643;DHT22;31358;46.008;11.144;2023-07-20T13:22:08;31.50;94.30
45643;DHT22;31358;46.008;11.144;2023-07-20T13:24:34;31.60;94.30
45643;DHT22;31358;46.008;11.144;2023-07-20T13:27:00;31.70;94.70
45643;DHT22;31358;46.008;11.144;2023-07-20T13:29:25;31.70;94.70
45643;DHT22;31358;46.008;11.144;2023-07-20T13:31:51;31.60;94.50
45643;DHT22;31358;46.008;11.144;2023-07-20T13:34:17;31.40;95.60
45643;DHT22;31358;46.008;11.144;2023-07-20T13:36:42;31.20;95.40
45643;DHT22;31358;46.008;11.144;2023-07-20T13:39:08;30.90;95.60
45643;DHT22;31358;46.008;11.144;2023-07-20T13:41:34;30.60;95.90
45643;DHT22;31358;46.008;11.144;2023-07-20T13:44:00;30.40;96.40
45643;DHT22;31358;46.008;11.144;2023-07-20T13:46:25;30.40;96.00
45643;DHT22;31358;46.008;11.144;2023-07-20T13:48:51;30.30;97.30
45643;DHT22;31358;46.008;11.144;2023-07-20T13:51:17;30.20;99.40
45643;DHT22;31358;46.008;11.144;2023-07-20T13:53:45;30.00;97.60
45643;DHT22;31358;46.008;11.144;2023-07-20T13:56:11;29.90;97.70
45643;DHT22;31358;46.008;11.144;2023-07-20T13:58:37;29.80;97.30
45643;DHT22;31358;46.008;11.144;2023-07-20T14:01:02;29.80;97.80
45643;DHT22;31358;46.008;11.144;2023-07-20T14:03:28;29.80;97.60
45643;DHT22;31358;46.008;11.144;2023-07-20T14:05:54;29.90;95.80
45643;DHT22;31358;46.008;11.144;2023-07-20T14:08:21;30.00;95.30
45643;DHT22;31358;46.008;11.144;2023-07-20T14:10:46;30.20;96.30
45643;DHT22;31358;46.008;11.144;2023-07-20T14:13:12;30.40;94.90
45643;DHT22;31358;46.008;11.144;2023-07-20T14:15:38;30.80;95.10
45643;DHT22;31358;46.008;11.144;2023-07-20T14:18:04;30.70;94.80
45643;DHT22;31358;46.008;11.144;2023-07-20T14:20:30;30.40;94.50
45643;DHT22;31358;46.008;11.144;2023-07-20T14:22:55;30.20;94.10
45643;DHT22;31358;46.008;11.144;2023-07-20T14:25:21;30.20;94.60
45643;DHT22;31358;46.008;11.144;2023-07-20T14:27:47;30.10;94.80
45643;DHT22;31358;46.008;11.144;2023-07-20T14:30:13;30.10;95.30
45643;DHT22;31358;46.008;11.144;2023-07-20T14:32:40;30.00;95.90
45643;DHT22;31358;46.008;11.144;2023-07-20T14:35:06;30.00;95.60
45643;DHT22;31358;46.008;11.144;2023-07-20T14:37:32;29.80;95.40
45643;DHT22;31358;46.008;11.144;2023-07-20T14:39:59;29.80;95.60
45643;DHT22;31358;46.008;11.144;2023-07-20T14:42:25;29.90;96.30
45643;DHT22;31358;46.008;11.144;2023-07-20T14:44:51;29.90;97.10
45643;DHT22;31358;46.008;11.144;2023-07-20T14:47:16;30.00;96.90
45643;DHT22;31358;46.008;11.144;2023-07-20T14:49:42;30.00;96.50
45643;DHT22;31358;46.008;11.144;2023-07-20T14:52:08;30.00;96.50
45643;DHT22;31358;46.008;11.144;2023-07-20T14:54:35;30.00;97.50
45643;DHT22;31358;46.008;11.144;2023-07-20T14:57:01;30.00;97.70
45643;DHT22;31358;46.008;11.144;2023-07-20T14:59:26;30.10;96.60
45643;DHT22;31358;46.008;11.144;2023-07-20T15:01:52;30.20;96.60
45643;DHT22;31358;46.008;11.144;2023-07-20T15:04:18;30.40;96.70
45643;DHT22;31358;46.008;11.144;2023-07-20T15:06:44;30.60;96.80
45643;DHT22;31358;46.008;11.144;2023-07-20T15:09:10;30.80;96.80
45643;DHT22;31358;46.008;11.144;2023-07-20T15:11:36;30.90;96.50
45643;DHT22;31358;46.008;11.144;2023-07-20T15:14:02;31.00;96.20
45643;DHT22;31358;46.008;11.144;2023-07-20T15:16:28;31.00;96.00
45643;DHT22;31358;46.008;11.144;2023-07-20T15:18:53;31.20;96.70
45643;DHT22;31358;46.008;11.144;2023-07-20T15:21:19;31.20;96.40
45643;DHT22;31358;46.008;11.144;2023-07-20T15:23:45;31.20;96.50
45643;DHT22;31358;46.008;11.144;2023-07-20T15:26:11;31.20;96.00
45643;DHT22;31358;46.008;11.144;2023-07-20T15:28:37;31.20;95.80
45643;DHT22;31358;46.008;11.144;2023-07-20T15:31:04;31.30;96.30
45643;DHT22;31358;46.008;11.144;2023-07-20T15:33:30;31.50;96.20
45643;DHT22;31358;46.008;11.144;2023-07-20T15:35:56;31.40;95.90